createdAt,value
2019-01-12T00:00:02.430Z,6.80
2019-01-12T00:02:36.201Z,6.90
2019-01-12T00:05:09.327Z,7.00
2019-01-12T00:07:42.450Z,7.00
2019-01-12T00:10:16.440Z,7.00
2019-01-12T00:12:49.521Z,7.00
2019-01-12T00:15:22.636Z,6.90
2019-01-12T00:17:58.865Z,7.00
2019-01-12T00:20:32.039Z,6.90
2019-01-12T00:23:05.231Z,7.00
2019-01-12T00:25:38.284Z,7.00
2019-01-12T00:28:11.411Z,7.00
2019-01-12T00:30:44.611Z,7.00
2019-01-12T00:33:17.919Z,7.00
2019-01-12T00:35:51.283Z,7.10
2019-01-12T00:38:24.429Z,7.00
2019-01-12T00:40:57.784Z,7.00
2019-01-12T00:43:32.757Z,7.10
2019-01-12T00:46:05.884Z,7.20
2019-01-12T00:48:39.166Z,7.20
2019-01-12T00:51:12.580Z,7.10
2019-01-12T00:53:45.660Z,7.20
2019-01-12T00:56:19.002Z,7.20
2019-01-12T00:58:52.110Z,7.10
2019-01-12T01:01:25.232Z,7.10
2019-01-12T01:03:58.371Z,7.20
2019-01-12T01:06:31.722Z,7.20
2019-01-12T01:09:08.848Z,7.10
2019-01-12T01:11:42.071Z,7.10
2019-01-12T01:14:15.166Z,7.10
2019-01-12T01:16:48.263Z,7.00
2019-01-12T01:19:21.366Z,7.00
2019-01-12T01:21:54.463Z,7.00
2019-01-12T01:24:27.439Z,7.00
2019-01-12T01:27:00.705Z,7.10
2019-01-12T01:29:33.895Z,7.10
2019-01-12T01:32:07.179Z,7.00
2019-01-12T01:34:40.864Z,7.00
2019-01-12T01:37:13.951Z,7.00
2019-01-12T01:39:46.922Z,7.00
2019-01-12T01:42:20.199Z,7.10
2019-01-12T01:44:53.183Z,7.20
2019-01-12T01:47:26.308Z,7.10
2019-01-12T01:49:59.662Z,7.00
2019-01-12T01:52:32.974Z,6.90
2019-01-12T01:55:06.196Z,6.80
2019-01-12T01:57:39.220Z,6.70
2019-01-12T02:00:17.666Z,6.70
2019-01-12T02:02:50.809Z,6.70
2019-01-12T02:05:23.802Z,6.60
2019-01-12T02:07:56.808Z,6.70
2019-01-12T02:10:29.979Z,6.70
2019-01-12T02:13:03.114Z,6.70
2019-01-12T02:15:36.204Z,6.70
2019-01-12T02:18:09.206Z,6.80
2019-01-12T02:20:42.188Z,6.80
2019-01-12T02:23:15.294Z,6.80
2019-01-12T02:25:48.415Z,6.80
2019-01-12T02:28:21.627Z,6.90
2019-01-12T02:30:57.414Z,6.90
2019-01-12T02:33:31.066Z,6.90
2019-01-12T02:36:04.402Z,6.90
2019-01-12T02:38:37.451Z,6.80
2019-01-12T02:41:10.533Z,6.90
2019-01-12T02:43:44.512Z,6.90
2019-01-12T02:46:17.594Z,6.90
2019-01-12T02:48:50.661Z,6.90
2019-01-12T02:51:23.716Z,7.00
2019-01-12T02:53:56.813Z,7.10
2019-01-12T02:56:29.974Z,7.00
2019-01-12T02:59:03.043Z,6.90
2019-01-12T03:01:36.212Z,6.90
2019-01-12T03:04:09.261Z,6.90
2019-01-12T03:06:42.418Z,6.90
2019-01-12T03:09:15.391Z,7.00
2019-01-12T03:11:48.516Z,6.90
2019-01-12T03:14:21.664Z,6.90
2019-01-12T03:16:54.675Z,6.90
2019-01-12T03:19:27.662Z,7.00
2019-01-12T03:22:01.650Z,6.90
2019-01-12T03:24:34.810Z,6.90
2019-01-12T03:27:07.822Z,7.00
2019-01-12T03:29:41.049Z,7.00
2019-01-12T03:32:14.043Z,7.00
2019-01-12T03:34:47.124Z,7.00
2019-01-12T03:37:20.250Z,7.00
2019-01-12T03:39:53.230Z,7.00
2019-01-12T03:42:26.270Z,7.00
2019-01-12T03:44:59.328Z,6.90
2019-01-12T03:47:32.449Z,7.00
2019-01-12T03:50:06.707Z,7.00
2019-01-12T03:52:39.746Z,6.90
2019-01-12T03:55:13.037Z,7.00
2019-01-12T03:57:46.055Z,7.00
2019-01-12T04:00:21.088Z,6.90
2019-01-12T04:02:54.181Z,6.80
2019-01-12T04:05:27.373Z,6.90
2019-01-12T04:08:00.578Z,6.90
2019-01-12T04:10:33.680Z,6.80
2019-01-12T04:13:06.840Z,6.70
2019-01-12T04:15:41.463Z,6.80
2019-01-12T04:18:14.538Z,6.80
2019-01-12T04:20:47.636Z,6.80
2019-01-12T04:23:20.971Z,6.80
2019-01-12T04:25:56.343Z,6.80
2019-01-12T04:28:30.018Z,6.80
2019-01-12T04:31:04.108Z,6.80
2019-01-12T04:33:37.253Z,6.80
2019-01-12T04:36:11.222Z,6.80
2019-01-12T04:38:44.241Z,6.90
2019-01-12T04:41:17.221Z,6.90
2019-01-12T04:43:50.361Z,6.70
2019-01-12T04:46:23.347Z,6.80
2019-01-12T04:48:56.482Z,6.80
2019-01-12T04:51:29.447Z,6.80
2019-01-12T04:54:02.463Z,6.90
2019-01-12T04:56:35.632Z,6.90
2019-01-12T04:59:08.653Z,6.90
2019-01-12T05:01:41.772Z,6.80
2019-01-12T05:04:14.785Z,6.80
2019-01-12T05:06:47.743Z,6.80
2019-01-12T05:09:20.878Z,6.70
2019-01-12T05:11:53.872Z,6.70
2019-01-12T05:14:26.990Z,6.70
2019-01-12T05:17:00.113Z,6.70
2019-01-12T05:19:35.184Z,6.60
2019-01-12T05:22:08.302Z,6.50
2019-01-12T05:24:41.428Z,6.60
2019-01-12T05:27:14.483Z,6.60
2019-01-12T05:29:47.901Z,6.50
2019-01-12T05:32:21.224Z,6.50
2019-01-12T05:34:54.334Z,6.50
2019-01-12T05:37:27.833Z,6.40
2019-01-12T05:40:01.210Z,6.30
2019-01-12T05:42:34.416Z,6.30
2019-01-12T05:45:07.855Z,6.20
2019-01-12T05:47:41.059Z,6.30
2019-01-12T05:50:14.578Z,6.40
2019-01-12T05:52:47.560Z,6.40
2019-01-12T05:55:20.676Z,6.40
2019-01-12T05:57:53.648Z,6.40
2019-01-12T06:00:28.282Z,6.30
2019-01-12T06:03:02.357Z,6.30
2019-01-12T06:05:35.470Z,6.30
2019-01-12T06:08:08.577Z,6.30
2019-01-12T06:10:41.723Z,6.30
2019-01-12T06:13:14.826Z,6.20
2019-01-12T06:15:48.419Z,6.30
2019-01-12T06:18:21.491Z,6.30
2019-01-12T06:20:54.722Z,6.30
2019-01-12T06:23:27.955Z,6.30
2019-01-12T06:26:04.033Z,6.30
2019-01-12T06:28:36.647Z,6.20
2019-01-12T06:31:09.789Z,6.20
2019-01-12T06:33:44.253Z,6.20
2019-01-12T06:36:17.485Z,6.20
2019-01-12T06:38:50.585Z,6.20
2019-01-12T06:41:23.610Z,6.20
2019-01-12T06:43:59.351Z,6.20
2019-01-12T06:46:32.603Z,6.10
2019-01-12T06:49:05.730Z,6.10
2019-01-12T06:51:38.769Z,6.10
2019-01-12T06:54:11.848Z,6.10
2019-01-12T06:56:45.004Z,6.20
2019-01-12T06:59:17.979Z,6.10
2019-01-12T07:01:51.107Z,6.20
2019-01-12T07:04:24.122Z,6.20
2019-01-12T07:06:57.147Z,6.10
2019-01-12T07:09:30.279Z,6.10
2019-01-12T07:12:03.311Z,6.20
2019-01-12T07:14:36.310Z,6.20
2019-01-12T07:17:09.345Z,6.20
2019-01-12T07:19:42.449Z,6.10
2019-01-12T07:22:15.563Z,6.10
2019-01-12T07:24:48.547Z,6.20
2019-01-12T07:27:25.683Z,6.10
2019-01-12T07:29:58.668Z,6.10
2019-01-12T07:32:31.927Z,6.10
2019-01-12T07:35:05.139Z,6.10
2019-01-12T07:37:38.281Z,6.20
2019-01-12T07:40:11.352Z,6.20
2019-01-12T07:42:44.381Z,6.20
2019-01-12T07:45:17.389Z,6.20
2019-01-12T07:47:50.635Z,6.30
2019-01-12T07:50:23.753Z,6.20
2019-01-12T07:52:56.883Z,6.20
2019-01-12T07:55:30.013Z,6.30
2019-01-12T07:58:03.185Z,6.30
2019-01-12T08:00:36.278Z,6.30
2019-01-12T08:03:09.671Z,6.20
2019-01-12T08:05:42.780Z,6.30
2019-01-12T08:08:15.836Z,6.20
2019-01-12T08:10:49.243Z,6.20
2019-01-12T08:13:23.237Z,6.30
2019-01-12T08:15:56.322Z,6.30
2019-01-12T08:18:29.329Z,6.30
2019-01-12T08:21:02.437Z,6.30
2019-01-12T08:23:35.579Z,6.40
2019-01-12T08:26:08.697Z,6.20
2019-01-12T08:28:42.284Z,6.20
2019-01-12T08:31:17.781Z,6.30
2019-01-12T08:33:50.931Z,6.30
2019-01-12T08:36:23.944Z,6.20
2019-01-12T08:38:58.005Z,6.10
2019-01-12T08:41:31.364Z,6.10
2019-01-12T08:44:07.305Z,6.20
2019-01-12T08:46:40.481Z,6.20
2019-01-12T08:49:13.747Z,6.20
2019-01-12T08:51:46.733Z,6.30
2019-01-12T08:54:22.834Z,6.20
2019-01-12T08:57:03.319Z,6.30
2019-01-12T08:59:36.521Z,6.20
2019-01-12T09:02:11.267Z,6.30
2019-01-12T09:04:44.314Z,6.50
2019-01-12T09:07:17.341Z,6.50
2019-01-12T09:09:50.653Z,6.40
2019-01-12T09:12:26.504Z,6.50
2019-01-12T09:15:00.523Z,6.50
2019-01-12T09:17:33.750Z,6.50
2019-01-12T09:20:08.778Z,6.40
2019-01-12T09:22:41.921Z,6.50
2019-01-12T09:25:16.103Z,6.50
2019-01-12T09:27:49.436Z,6.50
2019-01-12T09:30:24.564Z,8.50
2019-01-12T09:32:57.555Z,6.50
2019-01-12T09:35:31.231Z,6.50
2019-01-12T09:38:04.897Z,6.50
2019-01-12T09:40:38.057Z,6.50
2019-01-12T09:43:11.304Z,6.50
2019-01-12T09:45:44.459Z,6.60
2019-01-12T09:48:17.742Z,6.60
2019-01-12T09:50:51.013Z,6.60
2019-01-12T09:53:24.105Z,6.60
2019-01-12T09:56:03.639Z,6.60
2019-01-12T09:58:36.925Z,6.60
2019-01-12T10:01:10.075Z,6.50
2019-01-12T10:03:43.152Z,6.60
2019-01-12T10:06:16.333Z,6.70
2019-01-12T10:08:52.196Z,6.70
2019-01-12T10:11:25.339Z,4.30
2019-01-12T10:13:58.427Z,6.50
2019-01-12T10:16:31.679Z,6.50
2019-01-12T10:19:04.786Z,6.30
2019-01-12T10:21:37.865Z,6.30
2019-01-12T10:24:10.939Z,6.40
2019-01-12T10:26:44.093Z,6.30
2019-01-12T10:29:17.555Z,6.40
2019-01-12T10:31:50.623Z,6.40
2019-01-12T10:34:23.576Z,6.40
2019-01-12T10:36:56.770Z,6.40
2019-01-12T10:39:30.169Z,6.50
2019-01-12T10:42:03.255Z,6.50
2019-01-12T10:44:36.373Z,6.60
2019-01-12T10:47:09.515Z,6.50
2019-01-12T10:49:44.799Z,6.60
2019-01-12T10:52:17.997Z,6.60
2019-01-12T10:54:51.063Z,6.50
2019-01-12T10:57:24.190Z,6.60
2019-01-12T10:59:57.313Z,6.60
2019-01-12T11:02:30.624Z,6.70
2019-01-12T11:05:05.187Z,6.80
2019-01-12T11:07:41.906Z,6.70
2019-01-12T11:10:15.168Z,6.70
2019-01-12T11:12:48.504Z,6.70
2019-01-12T11:15:22.287Z,6.60
2019-01-12T11:17:56.270Z,6.60
2019-01-12T11:20:30.246Z,6.50
2019-01-12T11:23:03.283Z,6.50
2019-01-12T11:25:42.817Z,6.70
2019-01-12T11:28:13.287Z,6.70
2019-01-12T11:30:47.367Z,6.70
2019-01-12T11:33:20.517Z,6.70
2019-01-12T11:35:53.564Z,6.70
2019-01-12T11:38:26.717Z,6.70
2019-01-12T11:40:59.784Z,6.80
2019-01-12T11:43:32.916Z,6.80
2019-01-12T11:46:05.994Z,6.70
2019-01-12T11:48:39.038Z,6.70
2019-01-12T11:51:13.668Z,6.70
2019-01-12T11:53:46.663Z,6.90
2019-01-12T11:56:19.633Z,6.90
2019-01-12T11:58:53.210Z,7.00
2019-01-12T12:01:26.287Z,7.00
2019-01-12T12:03:59.403Z,7.00
2019-01-12T12:06:32.486Z,7.00
2019-01-12T12:09:08.292Z,7.00
2019-01-12T12:11:42.380Z,7.00
2019-01-12T12:14:15.523Z,7.00
2019-01-12T12:16:48.735Z,7.10
2019-01-12T12:19:21.878Z,7.20
2019-01-12T12:21:54.970Z,7.30
2019-01-12T12:24:28.142Z,7.40
2019-01-12T12:27:01.225Z,7.50
2019-01-12T12:29:34.460Z,7.50
2019-01-12T12:32:07.565Z,7.50
2019-01-12T12:34:40.680Z,7.60
2019-01-12T12:37:13.693Z,7.60
2019-01-12T12:39:46.874Z,7.70
2019-01-12T12:42:20.005Z,7.60
2019-01-12T12:44:53.134Z,7.50
2019-01-12T12:47:26.142Z,7.50
2019-01-12T12:49:59.226Z,7.60
2019-01-12T12:52:32.473Z,7.60
2019-01-12T12:55:08.429Z,7.70
2019-01-12T12:57:44.098Z,7.80
2019-01-12T13:00:21.358Z,7.80
2019-01-12T13:02:56.933Z,10.10
2019-01-12T13:05:30.175Z,7.90
2019-01-12T13:08:03.351Z,7.90
2019-01-12T13:10:36.532Z,7.80
2019-01-12T13:13:09.622Z,7.80
2019-01-12T13:15:42.787Z,7.90
2019-01-12T13:18:15.894Z,7.90
2019-01-12T13:20:49.062Z,7.90
2019-01-12T13:23:22.135Z,7.90
2019-01-12T13:25:55.286Z,7.90
2019-01-12T13:28:28.262Z,7.80
2019-01-12T13:31:01.555Z,7.80
2019-01-12T13:33:34.604Z,7.80
2019-01-12T13:36:08.878Z,7.90
2019-01-12T13:38:41.944Z,7.80
2019-01-12T13:41:15.008Z,7.80
2019-01-12T13:43:48.094Z,7.80
2019-01-12T13:46:21.212Z,7.80
2019-01-12T13:48:54.276Z,7.70
2019-01-12T13:51:27.458Z,7.70
2019-01-12T13:54:00.572Z,7.70
2019-01-12T13:56:33.767Z,7.70
2019-01-12T13:59:06.882Z,7.80
2019-01-12T14:01:40.120Z,7.80
2019-01-12T14:04:13.149Z,7.80
2019-01-12T14:06:46.244Z,7.80
2019-01-12T14:09:19.344Z,7.80
2019-01-12T14:11:52.531Z,7.80
2019-01-12T14:14:25.642Z,7.90
2019-01-12T14:16:58.703Z,7.90
2019-01-12T14:19:32.647Z,7.90
2019-01-12T14:22:05.883Z,7.90
2019-01-12T14:24:38.868Z,7.90
2019-01-12T14:27:12.026Z,7.90
2019-01-12T14:29:45.026Z,7.80
2019-01-12T14:32:18.290Z,7.80
2019-01-12T14:34:51.410Z,7.80
2019-01-12T14:37:24.542Z,7.70
2019-01-12T14:39:57.686Z,7.70
2019-01-12T14:42:30.852Z,7.70
2019-01-12T14:45:04.154Z,7.80
2019-01-12T14:47:40.540Z,7.90
2019-01-12T14:50:13.646Z,7.90
2019-01-12T14:52:47.714Z,7.90
2019-01-12T14:55:20.836Z,7.90
2019-01-12T14:58:01.687Z,7.80
2019-01-12T15:00:31.916Z,7.90
2019-01-12T15:03:06.102Z,7.90
2019-01-12T15:05:39.199Z,7.90
2019-01-12T15:08:12.368Z,7.80
2019-01-12T15:10:45.378Z,7.80
2019-01-12T15:13:18.524Z,7.70
2019-01-12T15:15:51.594Z,7.70
2019-01-12T15:18:24.713Z,7.80
2019-01-12T15:20:57.794Z,7.60
2019-01-12T15:23:30.948Z,7.60
2019-01-12T15:26:03.932Z,7.50
2019-01-12T15:28:37.030Z,7.50
2019-01-12T15:31:10.262Z,7.50
2019-01-12T15:33:46.212Z,7.50
2019-01-12T15:36:20.265Z,9.00
2019-01-12T15:38:53.288Z,7.50
2019-01-12T15:41:26.419Z,7.50
2019-01-12T15:44:00.903Z,7.50
2019-01-12T15:46:34.118Z,7.40
2019-01-12T15:49:07.238Z,7.30
2019-01-12T15:51:40.518Z,7.30
2019-01-12T15:54:13.639Z,7.30
2019-01-12T15:56:47.588Z,7.30
2019-01-12T15:59:20.746Z,7.30
2019-01-12T16:01:53.823Z,7.30
2019-01-12T16:04:26.916Z,7.30
2019-01-12T16:07:00.040Z,7.30
2019-01-12T16:09:33.170Z,7.30
2019-01-12T16:12:06.290Z,7.30
2019-01-12T16:14:39.438Z,7.30
2019-01-12T16:17:12.548Z,7.20
2019-01-12T16:19:46.110Z,7.30
2019-01-12T16:22:19.724Z,7.20
2019-01-12T16:24:53.322Z,7.30
2019-01-12T16:27:28.380Z,7.20
2019-01-12T16:30:01.473Z,7.20
2019-01-12T16:32:35.766Z,7.30
2019-01-12T16:35:09.018Z,7.30
2019-01-12T16:37:42.862Z,7.30
2019-01-12T16:40:18.394Z,7.40
2019-01-12T16:42:51.440Z,7.50
2019-01-12T16:45:24.540Z,7.50
2019-01-12T16:47:57.633Z,7.50
2019-01-12T16:50:30.806Z,7.40
2019-01-12T16:53:04.038Z,7.40
2019-01-12T16:55:37.252Z,7.40
2019-01-12T16:58:10.529Z,7.50
2019-01-12T17:00:43.562Z,7.50
2019-01-12T17:03:16.538Z,7.40
2019-01-12T17:05:49.560Z,7.40
2019-01-12T17:08:22.690Z,7.50
2019-01-12T17:10:55.820Z,7.50
2019-01-12T17:13:29.134Z,7.50
2019-01-12T17:16:02.334Z,7.40
2019-01-12T17:18:35.637Z,7.40
2019-01-12T17:21:08.955Z,7.50
2019-01-12T17:23:42.139Z,7.50
2019-01-12T17:26:15.455Z,7.50
2019-01-12T17:28:48.536Z,7.50
2019-01-12T17:34:02.823Z,7.40
2019-01-12T17:36:36.169Z,7.30
2019-01-12T17:39:10.344Z,7.30
2019-01-12T17:41:43.349Z,7.20
2019-01-12T17:44:17.317Z,7.40
2019-01-12T17:46:50.427Z,7.30
2019-01-12T17:49:25.196Z,7.20
2019-01-12T17:51:58.281Z,7.30
2019-01-12T17:54:31.472Z,7.40
2019-01-12T17:57:04.561Z,7.30
2019-01-12T17:59:37.650Z,7.20
2019-01-12T18:02:11.011Z,7.20
2019-01-12T18:04:44.027Z,7.20
2019-01-12T18:07:17.207Z,7.10
2019-01-12T18:09:50.342Z,7.00
2019-01-12T18:12:23.356Z,7.00
2019-01-12T18:14:56.458Z,7.00
2019-01-12T18:17:29.562Z,6.90
2019-01-12T18:20:02.687Z,6.90
2019-01-12T18:22:36.425Z,6.90
2019-01-12T18:25:10.587Z,6.90
2019-01-12T18:27:43.969Z,7.00
2019-01-12T18:30:19.071Z,7.00
2019-01-12T18:32:52.193Z,7.00
2019-01-12T18:35:25.225Z,7.00
2019-01-12T18:37:58.351Z,6.90
2019-01-12T18:40:31.577Z,7.00
2019-01-12T18:43:04.647Z,7.00
2019-01-12T18:45:37.803Z,6.90
2019-01-12T18:48:11.024Z,7.00
2019-01-12T18:50:44.169Z,7.00
2019-01-12T18:53:17.356Z,7.00
2019-01-12T18:55:51.442Z,7.00
2019-01-12T18:58:25.844Z,7.00
2019-01-12T19:00:58.963Z,6.90
2019-01-12T19:03:32.233Z,7.00
2019-01-12T19:06:05.363Z,7.10
2019-01-12T19:08:38.867Z,7.10
2019-01-12T19:11:12.049Z,7.10
2019-01-12T19:13:45.313Z,7.10
2019-01-12T19:16:18.671Z,7.10
2019-01-12T19:18:51.798Z,7.10
2019-01-12T19:21:24.961Z,7.10
2019-01-12T19:23:57.957Z,7.10
2019-01-12T19:26:31.090Z,7.10
2019-01-12T19:29:06.640Z,7.10
2019-01-12T19:31:39.185Z,7.10
2019-01-12T19:34:12.297Z,7.20
2019-01-12T19:36:45.432Z,7.30
2019-01-12T19:39:19.005Z,7.30
2019-01-12T19:41:52.879Z,7.30
2019-01-12T19:44:25.995Z,7.30
2019-01-12T19:46:59.343Z,7.30
2019-01-12T19:49:32.689Z,7.20
2019-01-12T19:52:05.839Z,7.20
2019-01-12T19:54:39.335Z,7.30
2019-01-12T19:57:12.515Z,7.40
2019-01-12T19:59:45.612Z,7.40
2019-01-12T20:02:18.791Z,7.40
2019-01-12T20:04:51.913Z,7.40
2019-01-12T20:07:29.128Z,7.40
2019-01-12T20:10:02.207Z,7.40
2019-01-12T20:12:36.396Z,7.40
2019-01-12T20:15:11.701Z,7.40
2019-01-12T20:17:45.786Z,7.30
2019-01-12T20:20:18.995Z,7.30
2019-01-12T20:22:52.127Z,7.30
2019-01-12T20:25:29.721Z,7.30
2019-01-12T20:28:14.330Z,7.30
2019-01-12T20:31:34.251Z,7.40
2019-01-12T20:34:44.120Z,7.30
2019-01-12T20:38:03.476Z,7.30
2019-01-12T20:40:58.723Z,7.30
2019-01-12T20:44:03.556Z,7.20
2019-01-12T20:47:26.921Z,7.20
2019-01-12T20:50:25.125Z,7.30
2019-01-12T20:53:16.333Z,7.40
2019-01-12T20:56:23.470Z,7.40
2019-01-12T20:59:31.178Z,7.40
2019-01-12T21:02:40.645Z,7.50
2019-01-12T21:05:28.341Z,7.40
2019-01-12T21:08:28.672Z,7.40
2019-01-12T21:12:08.979Z,7.50
2019-01-12T21:14:57.987Z,7.40
2019-01-12T21:17:31.248Z,7.40
2019-01-12T21:20:07.289Z,7.40
2019-01-12T21:22:40.457Z,7.40
2019-01-12T21:25:13.573Z,7.40
2019-01-12T21:27:46.684Z,7.40
2019-01-12T21:30:19.890Z,7.50
2019-01-12T21:32:53.027Z,7.50
2019-01-12T21:35:26.066Z,7.50
2019-01-12T21:37:59.203Z,7.50
2019-01-12T21:40:32.359Z,7.60
2019-01-12T21:43:05.591Z,7.60
2019-01-12T21:45:38.682Z,7.50
2019-01-12T21:48:11.825Z,7.50
2019-01-12T21:50:45.913Z,7.40
2019-01-12T21:53:18.970Z,7.40
2019-01-12T21:55:52.099Z,7.30
2019-01-12T21:58:25.523Z,7.40
2019-01-12T22:00:58.509Z,7.50
2019-01-12T22:03:31.693Z,7.50
2019-01-12T22:06:04.732Z,7.50
2019-01-12T22:08:37.845Z,7.40
2019-01-12T22:11:10.960Z,7.40
2019-01-12T22:13:44.054Z,7.30
2019-01-12T22:16:17.112Z,7.30
2019-01-12T22:18:50.221Z,7.30
2019-01-12T22:21:23.237Z,7.30
2019-01-12T22:23:57.273Z,7.30
2019-01-12T22:26:30.649Z,7.30
2019-01-12T22:29:03.644Z,7.20
2019-01-12T22:31:36.618Z,7.30
2019-01-12T22:34:09.735Z,7.30
2019-01-12T22:36:45.021Z,7.30
2019-01-12T22:39:19.075Z,7.30
2019-01-12T22:41:52.186Z,7.40
2019-01-12T22:44:25.284Z,7.40
2019-01-12T22:46:59.783Z,7.50
2019-01-12T22:49:33.635Z,7.50
2019-01-12T22:52:06.757Z,7.60
2019-01-12T22:54:39.905Z,7.60
2019-01-12T22:57:15.448Z,7.70
2019-01-12T22:59:49.588Z,7.60
2019-01-12T23:02:24.244Z,7.60
2019-01-12T23:04:57.768Z,7.70
2019-01-12T23:07:31.001Z,7.70
2019-01-12T23:10:04.453Z,7.70
2019-01-12T23:12:37.647Z,7.70
2019-01-12T23:15:10.751Z,7.70
2019-01-12T23:17:43.881Z,7.60
2019-01-12T23:20:17.010Z,7.60
2019-01-12T23:22:56.872Z,7.70
2019-01-12T23:25:30.874Z,7.60
2019-01-12T23:28:04.011Z,7.60
2019-01-12T23:30:37.108Z,7.60
2019-01-12T23:33:10.842Z,7.60
2019-01-12T23:35:43.818Z,7.70
2019-01-12T23:38:17.010Z,7.70
2019-01-12T23:40:50.148Z,7.60
2019-01-12T23:43:23.307Z,7.70
2019-01-12T23:45:56.591Z,7.50
2019-01-12T23:48:29.734Z,7.50
2019-01-12T23:51:04.542Z,7.50
2019-01-12T23:53:37.548Z,7.50
2019-01-12T23:56:14.775Z,7.50
2019-01-12T23:58:48.576Z,7.50
